createdAt,value
2018-06-20T00:00:12.441Z,79.1
2018-06-20T00:01:13.796Z,79.2
2018-06-20T00:02:15.160Z,79.1
2018-06-20T00:03:16.516Z,79.1
2018-06-20T00:04:17.883Z,78.2
2018-06-20T00:05:19.264Z,78.0
2018-06-20T00:06:20.623Z,77.8
2018-06-20T00:07:22.013Z,77.7
2018-06-20T00:08:23.356Z,77.5
2018-06-20T00:09:24.736Z,77.5
2018-06-20T00:10:26.097Z,77.2
2018-06-20T00:11:27.459Z,77.2
2018-06-20T00:12:28.820Z,76.9
2018-06-20T00:13:30.175Z,77.0
2018-06-20T00:14:31.535Z,77.3
2018-06-20T00:15:32.902Z,77.5
2018-06-20T00:16:34.269Z,76.9
2018-06-20T00:17:35.632Z,76.7
2018-06-20T00:18:36.996Z,76.9
2018-06-20T00:19:38.356Z,76.8
2018-06-20T00:20:39.721Z,76.8
2018-06-20T00:21:41.085Z,77.1
2018-06-20T00:22:42.445Z,76.7
2018-06-20T00:23:43.803Z,76.6
2018-06-20T00:24:45.172Z,76.7
2018-06-20T00:25:46.535Z,76.5
2018-06-20T00:26:47.896Z,76.6
2018-06-20T00:27:49.276Z,76.6
2018-06-20T00:28:50.651Z,76.3
2018-06-20T00:29:52.007Z,76.9
2018-06-20T00:30:53.365Z,76.6
2018-06-20T00:31:54.731Z,76.6
2018-06-20T00:32:56.105Z,76.4
2018-06-20T00:33:57.462Z,76.7
2018-06-20T00:34:58.822Z,77.1
2018-06-20T00:36:00.183Z,77.0
2018-06-20T00:37:01.546Z,76.7
2018-06-20T00:38:02.907Z,76.7
2018-06-20T00:39:04.275Z,76.7
2018-06-20T00:40:05.635Z,76.8
2018-06-20T00:41:07.006Z,76.5
2018-06-20T00:42:08.367Z,76.6
2018-06-20T00:43:09.718Z,77.1
2018-06-20T00:44:11.096Z,76.8
2018-06-20T00:45:12.441Z,77.3
2018-06-20T00:46:13.811Z,77.3
2018-06-20T00:47:15.167Z,77.4
2018-06-20T00:48:16.542Z,77.1
2018-06-20T00:49:17.906Z,77.3
2018-06-20T00:50:19.291Z,77.4
2018-06-20T00:51:20.648Z,77.8
2018-06-20T00:52:22.007Z,77.8
2018-06-20T00:53:23.367Z,77.6
2018-06-20T00:54:24.735Z,77.7
2018-06-20T00:55:26.103Z,77.9
2018-06-20T00:56:27.473Z,78.0
2018-06-20T00:57:28.835Z,77.8
2018-06-20T00:58:30.191Z,78.2
2018-06-20T00:59:31.556Z,78.1
2018-06-20T01:00:32.920Z,78.4
2018-06-20T01:01:34.281Z,78.2
2018-06-20T01:02:35.638Z,78.2
2018-06-20T01:03:37.006Z,78.5
2018-06-20T01:04:38.366Z,78.9
2018-06-20T01:05:39.732Z,78.7
2018-06-20T01:06:41.092Z,79.1
2018-06-20T01:07:42.461Z,79.1
2018-06-20T01:08:43.820Z,79.1
2018-06-20T01:09:45.180Z,79.4
2018-06-20T01:10:46.531Z,79.4
2018-06-20T01:11:47.918Z,79.4
2018-06-20T01:12:49.792Z,79.2
2018-06-20T01:13:51.152Z,79.1
2018-06-20T01:14:52.516Z,79.4
2018-06-20T01:15:53.882Z,78.9
2018-06-20T01:16:55.232Z,79.2
2018-06-20T01:17:56.606Z,79.1
2018-06-20T01:18:57.967Z,79.3
2018-06-20T01:19:59.328Z,79.3
2018-06-20T01:21:00.692Z,79.2
2018-06-20T01:22:02.066Z,79.0
2018-06-20T01:23:03.412Z,79.1
2018-06-20T01:24:04.773Z,79.4
2018-06-20T01:25:06.139Z,78.7
2018-06-20T01:26:07.506Z,78.7
2018-06-20T01:27:08.861Z,78.7
2018-06-20T01:28:10.227Z,78.8
2018-06-20T01:29:11.587Z,78.7
2018-06-20T01:30:12.968Z,78.7
2018-06-20T01:31:14.327Z,78.8
2018-06-20T01:32:15.693Z,78.6
2018-06-20T01:33:17.075Z,78.9
2018-06-20T01:34:18.423Z,78.7
2018-06-20T01:35:20.277Z,79.4
2018-06-20T01:36:21.681Z,79.1
2018-06-20T01:37:23.037Z,79.3
2018-06-20T01:38:24.391Z,79.3
2018-06-20T01:39:25.754Z,79.0
2018-06-20T01:40:27.117Z,79.1
2018-06-20T01:41:28.474Z,79.2
2018-06-20T01:42:29.834Z,79.3
2018-06-20T01:43:31.203Z,79.0
2018-06-20T01:44:32.569Z,79.3
2018-06-20T01:45:33.928Z,79.2
2018-06-20T01:46:35.293Z,79.1
2018-06-20T01:47:36.650Z,79.3
2018-06-20T01:48:38.013Z,79.3
2018-06-20T01:49:39.379Z,79.1
2018-06-20T01:50:40.752Z,78.4
2018-06-20T01:51:42.108Z,79.1
2018-06-20T01:52:43.468Z,78.8
2018-06-20T01:53:44.827Z,79.1
2018-06-20T01:54:46.192Z,79.6
2018-06-20T01:55:47.660Z,79.7
2018-06-20T01:56:48.887Z,79.7
2018-06-20T01:57:50.244Z,80.0
2018-06-20T01:58:51.614Z,80.0
2018-06-20T01:59:52.982Z,79.7
2018-06-20T02:00:54.397Z,80.2
2018-06-20T02:01:55.710Z,80.2
2018-06-20T02:02:57.067Z,80.1
2018-06-20T02:03:58.442Z,80.0
2018-06-20T02:04:59.798Z,80.0
2018-06-20T02:06:01.159Z,80.1
2018-06-20T02:07:02.512Z,80.0
2018-06-20T02:08:03.878Z,79.7
2018-06-20T02:09:05.243Z,79.9
2018-06-20T02:10:06.606Z,80.2
2018-06-20T02:11:07.967Z,80.2
2018-06-20T02:12:09.333Z,79.9
2018-06-20T02:13:10.695Z,79.7
2018-06-20T02:14:12.057Z,79.6
2018-06-20T02:15:13.422Z,79.7
2018-06-20T02:16:14.780Z,79.4
2018-06-20T02:17:16.144Z,79.5
2018-06-20T02:18:17.502Z,79.5
2018-06-20T02:19:18.863Z,79.5
2018-06-20T02:20:20.232Z,79.7
2018-06-20T02:21:21.595Z,79.5
2018-06-20T02:22:22.953Z,79.8
2018-06-20T02:23:24.324Z,79.4
2018-06-20T02:24:25.689Z,79.4
2018-06-20T02:25:27.053Z,79.4
2018-06-20T02:26:28.413Z,79.4
2018-06-20T02:27:29.770Z,79.4
2018-06-20T02:28:31.125Z,79.5
2018-06-20T02:29:32.488Z,79.4
2018-06-20T02:30:33.848Z,79.6
2018-06-20T02:31:35.218Z,79.5
2018-06-20T02:32:36.579Z,79.6
2018-06-20T02:33:37.939Z,78.9
2018-06-20T02:34:39.304Z,79.3
2018-06-20T02:35:40.664Z,79.6
2018-06-20T02:36:42.057Z,79.6
2018-06-20T02:37:43.404Z,79.7
2018-06-20T02:38:44.758Z,79.5
2018-06-20T02:39:46.120Z,79.3
2018-06-20T02:40:47.495Z,79.6
2018-06-20T02:41:48.851Z,79.7
2018-06-20T02:42:50.212Z,80.0
2018-06-20T02:43:51.569Z,80.1
2018-06-20T02:44:52.940Z,79.7
2018-06-20T02:45:54.300Z,80.1
2018-06-20T02:46:55.673Z,80.1
2018-06-20T02:47:57.028Z,80.7
2018-06-20T02:48:58.397Z,80.5
2018-06-20T02:49:59.758Z,81.0
2018-06-20T02:51:01.126Z,81.1
2018-06-20T02:52:02.479Z,81.1
2018-06-20T02:53:03.848Z,81.1
2018-06-20T02:54:05.207Z,81.3
2018-06-20T02:55:06.575Z,81.2
2018-06-20T02:56:07.936Z,81.4
2018-06-20T02:57:09.290Z,81.2
2018-06-20T02:58:10.653Z,80.7
2018-06-20T02:59:12.020Z,80.9
2018-06-20T03:00:13.379Z,80.9
2018-06-20T03:01:14.741Z,81.2
2018-06-20T03:02:16.093Z,81.3
2018-06-20T03:03:17.459Z,81.1
2018-06-20T03:04:18.824Z,81.6
2018-06-20T03:05:20.183Z,81.7
2018-06-20T03:06:21.549Z,81.4
2018-06-20T03:07:22.918Z,81.2
2018-06-20T03:08:24.279Z,81.3
2018-06-20T03:09:25.641Z,81.7
2018-06-20T03:10:27.013Z,81.8
2018-06-20T03:11:28.376Z,81.8
2018-06-20T03:12:29.735Z,82.2
2018-06-20T03:13:31.105Z,81.5
2018-06-20T03:14:32.467Z,82.2
2018-06-20T03:15:33.846Z,82.2
2018-06-20T03:16:35.208Z,82.6
2018-06-20T03:17:36.575Z,82.5
2018-06-20T03:18:37.942Z,82.3
2018-06-20T03:19:39.302Z,82.4
2018-06-20T03:20:40.659Z,82.3
2018-06-20T03:21:42.015Z,82.7
2018-06-20T03:22:43.388Z,82.5
2018-06-20T03:23:44.758Z,82.7
2018-06-20T03:24:46.115Z,82.8
2018-06-20T03:25:47.489Z,83.1
2018-06-20T03:26:48.855Z,82.9
2018-06-20T03:27:50.220Z,83.3
2018-06-20T03:28:51.601Z,83.1
2018-06-20T03:29:52.964Z,83.2
2018-06-20T03:30:54.336Z,83.3
2018-06-20T03:31:55.695Z,83.7
2018-06-20T03:32:57.064Z,83.9
2018-06-20T03:33:58.425Z,83.4
2018-06-20T03:34:59.800Z,84.0
2018-06-20T03:36:01.160Z,83.9
2018-06-20T03:37:02.519Z,83.7
2018-06-20T03:38:03.881Z,83.7
2018-06-20T03:39:05.265Z,84.3
2018-06-20T03:40:06.621Z,84.0
2018-06-20T03:41:07.990Z,84.4
2018-06-20T03:42:09.353Z,84.2
2018-06-20T03:43:10.713Z,84.2
2018-06-20T03:44:12.074Z,84.6
2018-06-20T03:45:13.444Z,84.6
2018-06-20T03:46:14.811Z,85.2
2018-06-20T03:47:16.183Z,85.0
2018-06-20T03:48:17.544Z,84.9
2018-06-20T03:49:18.905Z,84.6
2018-06-20T03:50:20.275Z,84.6
2018-06-20T03:51:21.653Z,84.5
2018-06-20T03:52:23.015Z,84.7
2018-06-20T03:53:24.386Z,84.7
2018-06-20T03:54:25.755Z,84.8
2018-06-20T03:55:27.118Z,85.3
2018-06-20T03:56:28.480Z,84.8
2018-06-20T03:57:29.850Z,85.6
2018-06-20T03:58:31.213Z,85.3
2018-06-20T03:59:32.574Z,85.3
2018-06-20T04:00:33.951Z,85.2
2018-06-20T04:01:35.307Z,85.2
2018-06-20T04:02:36.671Z,85.7
2018-06-20T04:03:38.035Z,85.7
2018-06-20T04:04:39.399Z,85.9
2018-06-20T04:05:40.760Z,85.9
2018-06-20T04:06:42.140Z,86.0
2018-06-20T04:07:43.503Z,86.0
2018-06-20T04:08:44.860Z,85.8
2018-06-20T04:09:47.730Z,85.7
2018-06-20T04:10:49.109Z,85.8
2018-06-20T04:11:50.464Z,85.5
2018-06-20T04:12:51.834Z,85.9
2018-06-20T04:13:53.214Z,85.7
2018-06-20T04:14:54.576Z,85.7
2018-06-20T04:15:55.939Z,85.6
2018-06-20T04:16:57.316Z,85.9
2018-06-20T04:17:58.684Z,85.9
2018-06-20T04:19:00.055Z,86.0
2018-06-20T04:20:01.431Z,85.6
2018-06-20T04:21:02.803Z,85.8
2018-06-20T04:22:04.168Z,86.4
2018-06-20T04:23:05.555Z,86.4
2018-06-20T04:24:06.896Z,86.5
2018-06-20T04:25:08.267Z,85.8
2018-06-20T04:26:09.636Z,85.8
2018-06-20T04:27:11.007Z,86.5
2018-06-20T04:28:12.380Z,85.9
2018-06-20T04:29:13.740Z,85.6
2018-06-20T04:30:15.105Z,86.7
2018-06-20T04:31:16.468Z,86.5
2018-06-20T04:32:17.831Z,86.2
2018-06-20T04:33:19.216Z,86.1
2018-06-20T04:34:20.558Z,86.6
2018-06-20T04:35:21.951Z,86.3
2018-06-20T04:36:23.309Z,86.2
2018-06-20T04:37:24.676Z,86.8
2018-06-20T04:38:26.041Z,86.4
2018-06-20T04:39:27.411Z,86.4
2018-06-20T04:40:28.781Z,86.3
2018-06-20T04:41:30.141Z,86.5
2018-06-20T04:42:31.499Z,86.4
2018-06-20T04:43:32.884Z,86.4
2018-06-20T04:44:34.266Z,86.8
2018-06-20T04:45:35.624Z,86.6
2018-06-20T04:46:36.987Z,86.9
2018-06-20T04:47:38.364Z,86.7
2018-06-20T04:48:39.753Z,86.6
2018-06-20T04:49:41.107Z,86.4
2018-06-20T04:50:42.470Z,86.4
2018-06-20T04:51:43.840Z,86.6
2018-06-20T04:52:45.205Z,86.6
2018-06-20T04:53:46.570Z,86.6
2018-06-20T04:54:47.932Z,86.6
2018-06-20T04:55:49.888Z,86.6
2018-06-20T04:56:51.271Z,87.2
2018-06-20T04:57:52.638Z,86.8
2018-06-20T04:58:54.000Z,86.8
2018-06-20T04:59:55.381Z,87.4
2018-06-20T05:00:56.734Z,87.2
2018-06-20T05:01:58.111Z,87.2
2018-06-20T05:02:59.479Z,87.2
2018-06-20T05:04:00.854Z,87.1
2018-06-20T05:05:02.221Z,87.2
2018-06-20T05:06:03.592Z,87.4
2018-06-20T05:07:04.950Z,87.2
2018-06-20T05:08:06.322Z,86.9
2018-06-20T05:09:07.685Z,87.2
2018-06-20T05:10:09.061Z,86.8
2018-06-20T05:11:10.425Z,87.0
2018-06-20T05:12:11.809Z,87.0
2018-06-20T05:13:13.161Z,86.5
2018-06-20T05:14:14.524Z,86.6
2018-06-20T05:15:15.887Z,86.8
2018-06-20T05:16:17.258Z,87.0
2018-06-20T05:17:18.627Z,87.1
2018-06-20T05:18:20.015Z,87.0
2018-06-20T05:19:21.382Z,87.1
2018-06-20T05:20:22.741Z,86.8
2018-06-20T05:21:24.102Z,87.1
2018-06-20T05:22:25.476Z,86.8
2018-06-20T05:23:26.845Z,86.8
2018-06-20T05:24:28.208Z,87.0
2018-06-20T05:25:29.596Z,87.1
2018-06-20T05:26:30.966Z,87.1
2018-06-20T05:27:32.337Z,87.0
2018-06-20T05:28:33.707Z,87.1
2018-06-20T05:29:35.097Z,86.9
2018-06-20T05:30:36.472Z,87.1
2018-06-20T05:31:37.842Z,86.9
2018-06-20T05:32:39.207Z,87.0
2018-06-20T05:33:40.586Z,87.2
2018-06-20T05:34:41.953Z,86.6
2018-06-20T05:35:43.318Z,86.8
2018-06-20T05:36:44.695Z,86.8
2018-06-20T05:37:46.064Z,87.4
2018-06-20T05:38:47.431Z,86.8
2018-06-20T05:39:48.805Z,86.4
2018-06-20T05:40:50.202Z,85.9
2018-06-20T05:41:51.670Z,86.1
2018-06-20T05:42:52.946Z,85.5
2018-06-20T05:43:54.322Z,85.1
2018-06-20T05:44:55.690Z,85.1
2018-06-20T05:45:57.062Z,84.5
2018-06-20T05:46:58.445Z,84.3
2018-06-20T05:47:59.814Z,83.1
2018-06-20T05:49:01.193Z,83.0
2018-06-20T05:50:02.556Z,82.7
2018-06-20T05:51:03.932Z,82.0
2018-06-20T05:52:05.310Z,81.7
2018-06-20T05:53:06.690Z,81.4
2018-06-20T05:54:08.052Z,81.0
2018-06-20T05:55:09.460Z,80.9
2018-06-20T05:56:10.828Z,80.3
2018-06-20T05:57:12.218Z,80.4
2018-06-20T05:58:13.575Z,79.8
2018-06-20T05:59:14.965Z,79.4
2018-06-20T06:00:16.335Z,79.3
2018-06-20T06:01:17.738Z,78.5
2018-06-20T06:02:19.121Z,78.5
2018-06-20T06:03:20.481Z,78.6
2018-06-20T06:04:21.861Z,78.0
2018-06-20T06:05:23.228Z,77.3
2018-06-20T06:06:24.626Z,77.4
2018-06-20T06:07:26.011Z,77.6
2018-06-20T06:08:27.420Z,77.2
2018-06-20T06:09:28.793Z,76.9
2018-06-20T06:10:30.162Z,76.4
2018-06-20T06:11:31.542Z,76.4
2018-06-20T06:12:32.967Z,76.4
2018-06-20T06:13:34.365Z,76.4
2018-06-20T06:14:35.731Z,75.6
2018-06-20T06:15:37.150Z,75.5
2018-06-20T06:16:38.507Z,74.8
2018-06-20T06:17:39.902Z,75.7
2018-06-20T06:18:41.278Z,75.2
2018-06-20T06:19:42.648Z,75.2
2018-06-20T06:20:44.030Z,74.6
2018-06-20T06:21:45.446Z,74.6
2018-06-20T06:22:46.786Z,74.6
2018-06-20T06:23:48.183Z,74.6
2018-06-20T06:24:49.616Z,74.6
2018-06-20T06:25:51.005Z,74.5
2018-06-20T06:26:52.370Z,74.1
2018-06-20T06:27:53.751Z,74.4
2018-06-20T06:28:55.132Z,74.3
2018-06-20T06:29:56.511Z,73.9
2018-06-20T06:30:57.895Z,73.8
2018-06-20T06:31:59.283Z,73.5
2018-06-20T06:33:00.662Z,72.9
2018-06-20T06:34:02.038Z,72.7
2018-06-20T06:35:03.421Z,72.5
2018-06-20T06:36:04.802Z,72.3
2018-06-20T06:37:06.178Z,71.9
2018-06-20T06:38:07.562Z,71.9
2018-06-20T06:39:08.966Z,71.5
2018-06-20T06:40:10.666Z,71.1
2018-06-20T06:41:12.041Z,70.9
2018-06-20T06:42:13.431Z,71.4
2018-06-20T06:43:14.822Z,71.0
2018-06-20T06:44:16.216Z,71.4
2018-06-20T06:45:17.607Z,71.5
2018-06-20T06:46:19.013Z,70.9
2018-06-20T06:47:20.393Z,70.7
2018-06-20T06:48:21.786Z,70.9
2018-06-20T06:49:23.213Z,71.3
2018-06-20T06:50:24.613Z,70.7
2018-06-20T06:51:25.994Z,70.5
2018-06-20T06:52:27.397Z,69.9
2018-06-20T06:53:28.777Z,70.2
2018-06-20T06:54:30.173Z,70.3
2018-06-20T06:55:31.546Z,69.4
2018-06-20T06:56:32.972Z,69.5
2018-06-20T06:57:34.354Z,69.4
2018-06-20T06:58:35.727Z,70.1
2018-06-20T06:59:37.107Z,69.8
2018-06-20T07:00:38.498Z,69.7
2018-06-20T07:01:39.903Z,69.4
2018-06-20T07:02:41.292Z,69.0
2018-06-20T07:03:42.669Z,68.9
2018-06-20T07:04:44.050Z,68.5
2018-06-20T07:05:45.438Z,68.7
2018-06-20T07:06:46.831Z,68.2
2018-06-20T07:07:48.209Z,67.8
2018-06-20T07:08:49.674Z,68.5
2018-06-20T07:09:51.061Z,67.8
2018-06-20T07:10:52.448Z,67.5
2018-06-20T07:11:53.830Z,66.9
2018-06-20T07:12:55.234Z,66.8
2018-06-20T07:13:56.614Z,66.7
2018-06-20T07:14:58.672Z,66.3
2018-06-20T07:16:00.022Z,66.3
2018-06-20T07:17:01.409Z,66.5
2018-06-20T07:18:02.789Z,66.3
2018-06-20T07:19:04.177Z,66.3
2018-06-20T07:20:05.553Z,66.3
2018-06-20T07:21:06.938Z,65.4
2018-06-20T07:22:08.359Z,65.9
2018-06-20T07:23:09.737Z,65.4
2018-06-20T07:24:11.176Z,65.4
2018-06-20T07:25:12.503Z,64.8
2018-06-20T07:26:13.899Z,64.8
2018-06-20T07:27:15.282Z,64.5
2018-06-20T07:28:16.665Z,64.3
2018-06-20T07:29:18.077Z,63.8
2018-06-20T07:30:19.459Z,63.9
2018-06-20T07:31:20.847Z,63.7
2018-06-20T07:32:22.266Z,63.9
2018-06-20T07:33:23.660Z,63.2
2018-06-20T07:34:25.046Z,63.0
2018-06-20T07:35:26.588Z,63.0
2018-06-20T07:36:27.967Z,62.5
2018-06-20T07:37:29.370Z,62.8
2018-06-20T07:38:30.748Z,62.7
2018-06-20T07:39:32.143Z,62.5
2018-06-20T07:40:33.534Z,62.4
2018-06-20T07:41:34.932Z,62.4
2018-06-20T07:42:36.317Z,62.2
2018-06-20T07:43:37.712Z,61.7
2018-06-20T07:44:39.093Z,60.8
2018-06-20T07:45:40.485Z,61.0
2018-06-20T07:46:41.874Z,61.1
2018-06-20T07:47:43.287Z,60.9
2018-06-20T07:48:44.693Z,60.4
2018-06-20T07:49:46.087Z,60.3
2018-06-20T07:50:47.514Z,60.2
2018-06-20T07:51:48.858Z,59.9
2018-06-20T07:52:50.248Z,59.8
2018-06-20T07:53:51.634Z,59.5
2018-06-20T07:54:53.078Z,59.4
2018-06-20T07:55:54.467Z,59.0
2018-06-20T07:56:55.873Z,58.7
2018-06-20T07:57:57.259Z,58.4
2018-06-20T07:58:58.639Z,57.7
2018-06-20T08:00:00.040Z,57.1
2018-06-20T08:01:01.487Z,57.3
2018-06-20T08:02:02.812Z,57.4
2018-06-20T08:03:04.198Z,57.7
2018-06-20T08:04:05.602Z,57.4
2018-06-20T08:05:06.985Z,57.4
2018-06-20T08:06:08.372Z,57.3
2018-06-20T08:07:09.749Z,56.8
2018-06-20T08:08:11.138Z,56.8
2018-06-20T08:09:12.539Z,57.0
2018-06-20T08:10:13.936Z,57.2
2018-06-20T08:11:15.330Z,56.5
2018-06-20T08:12:16.710Z,56.0
2018-06-20T08:13:18.097Z,55.9
2018-06-20T08:14:19.534Z,55.9
2018-06-20T08:15:20.919Z,55.8
2018-06-20T08:16:22.308Z,56.1
2018-06-20T08:17:23.709Z,55.7
2018-06-20T08:18:25.103Z,56.2
2018-06-20T08:19:26.483Z,56.3
2018-06-20T08:20:27.882Z,55.9
2018-06-20T08:21:29.272Z,55.7
2018-06-20T08:22:30.656Z,55.7
2018-06-20T08:23:32.055Z,56.2
2018-06-20T08:24:33.483Z,56.4
2018-06-20T08:25:34.895Z,56.2
2018-06-20T08:26:36.268Z,55.7
2018-06-20T08:27:37.693Z,55.4
2018-06-20T08:28:39.076Z,55.4
2018-06-20T08:29:40.470Z,55.3
2018-06-20T08:30:41.855Z,55.5
2018-06-20T08:31:43.233Z,55.5
2018-06-20T08:32:44.630Z,55.7
2018-06-20T08:33:46.014Z,55.6
2018-06-20T08:34:47.397Z,55.6
2018-06-20T08:35:48.804Z,55.6
2018-06-20T08:36:50.197Z,54.9
2018-06-20T08:37:51.582Z,54.9
2018-06-20T08:38:52.968Z,54.6
2018-06-20T08:39:54.361Z,54.7
2018-06-20T08:40:55.753Z,54.6
2018-06-20T08:41:57.148Z,54.4
2018-06-20T08:42:58.544Z,54.3
2018-06-20T08:43:59.940Z,54.6
2018-06-20T08:45:01.324Z,55.1
2018-06-20T08:46:02.765Z,55.0
2018-06-20T08:47:04.168Z,55.4
2018-06-20T08:48:05.566Z,55.4
2018-06-20T08:49:06.958Z,55.1
2018-06-20T08:50:08.353Z,54.6
2018-06-20T08:51:09.733Z,54.6
2018-06-20T08:52:11.131Z,54.6
2018-06-20T08:53:12.565Z,54.2
2018-06-20T08:54:13.984Z,54.3
2018-06-20T08:55:15.365Z,54.3
2018-06-20T08:56:16.749Z,53.7
2018-06-20T08:57:18.149Z,54.0
2018-06-20T08:58:19.608Z,53.2
2018-06-20T08:59:20.988Z,53.2
2018-06-20T09:00:22.385Z,52.8
2018-06-20T09:01:23.854Z,53.2
2018-06-20T09:02:25.238Z,53.1
2018-06-20T09:03:26.635Z,53.4
2018-06-20T09:04:28.019Z,53.0
2018-06-20T09:05:29.415Z,53.1
2018-06-20T09:06:30.808Z,53.2
2018-06-20T09:07:32.204Z,52.8
2018-06-20T09:08:33.656Z,52.5
2018-06-20T09:09:34.998Z,52.5
2018-06-20T09:10:36.398Z,52.0
2018-06-20T09:11:37.783Z,52.1
2018-06-20T09:12:39.182Z,52.3
2018-06-20T09:13:40.607Z,52.3
2018-06-20T09:14:41.969Z,52.0
2018-06-20T09:15:43.377Z,53.0
2018-06-20T09:16:44.775Z,52.7
2018-06-20T09:17:46.153Z,52.5
2018-06-20T09:18:47.569Z,52.7
2018-06-20T09:19:48.970Z,52.1
2018-06-20T09:20:50.373Z,52.3
2018-06-20T09:21:51.801Z,52.2
2018-06-20T09:22:53.176Z,52.2
2018-06-20T09:23:54.584Z,52.1
2018-06-20T09:24:56.024Z,52.5
2018-06-20T09:25:57.440Z,52.3
2018-06-20T09:26:58.839Z,52.3
2018-06-20T09:28:00.225Z,51.6
2018-06-20T09:29:01.619Z,51.5
2018-06-20T09:30:03.018Z,51.9
2018-06-20T09:31:04.395Z,51.5
2018-06-20T09:32:05.817Z,52.0
2018-06-20T09:33:07.204Z,51.3
2018-06-20T09:34:08.612Z,50.8
2018-06-20T09:35:10.003Z,50.9
2018-06-20T09:36:11.401Z,50.6
2018-06-20T09:37:12.800Z,50.7
2018-06-20T09:38:14.189Z,50.5
2018-06-20T09:39:15.584Z,50.0
2018-06-20T09:40:16.966Z,49.9
2018-06-20T09:41:18.378Z,50.8
2018-06-20T09:42:19.788Z,50.7
2018-06-20T09:43:21.197Z,50.4
2018-06-20T09:44:22.585Z,50.6
2018-06-20T09:45:23.980Z,50.5
2018-06-20T09:46:25.394Z,50.4
2018-06-20T09:47:26.780Z,50.0
2018-06-20T09:48:28.198Z,50.3
2018-06-20T09:49:29.584Z,50.0
2018-06-20T09:50:30.980Z,49.7
2018-06-20T09:51:32.378Z,49.4
2018-06-20T09:52:33.774Z,49.4
2018-06-20T09:53:35.158Z,49.8
2018-06-20T09:54:36.558Z,49.4
2018-06-20T09:55:37.985Z,49.3
2018-06-20T09:56:39.393Z,49.4
2018-06-20T09:57:40.779Z,49.5
2018-06-20T09:58:42.180Z,49.3
2018-06-20T09:59:43.564Z,49.2
2018-06-20T10:00:44.958Z,48.8
2018-06-20T10:01:46.354Z,48.6
2018-06-20T10:02:47.755Z,48.4
2018-06-20T10:03:49.155Z,48.9
2018-06-20T10:04:50.550Z,49.1
2018-06-20T10:05:51.945Z,48.1
2018-06-20T10:06:53.415Z,47.9
2018-06-20T10:07:54.695Z,47.9
2018-06-20T10:08:56.086Z,48.0
2018-06-20T10:09:57.543Z,47.6
2018-06-20T10:10:58.933Z,47.7
2018-06-20T10:12:00.330Z,47.9
2018-06-20T10:13:01.723Z,47.6
2018-06-20T10:14:03.255Z,47.8
2018-06-20T10:15:04.649Z,47.9
2018-06-20T10:16:06.045Z,47.9
2018-06-20T10:17:07.457Z,47.6
2018-06-20T10:18:08.841Z,47.7
2018-06-20T10:19:10.236Z,47.8
2018-06-20T10:20:11.638Z,47.8
2018-06-20T10:21:13.054Z,47.9
2018-06-20T10:22:14.384Z,47.4
2018-06-20T10:23:15.785Z,46.8
2018-06-20T10:24:17.191Z,46.7
2018-06-20T10:25:18.631Z,47.0
2018-06-20T10:26:20.017Z,46.2
2018-06-20T10:27:21.423Z,46.1
2018-06-20T10:28:22.851Z,45.9
2018-06-20T10:29:24.235Z,45.7
2018-06-20T10:30:25.676Z,45.8
2018-06-20T10:31:27.114Z,45.8
2018-06-20T10:32:28.505Z,47.1
2018-06-20T10:33:29.905Z,46.7
2018-06-20T10:34:31.330Z,47.1
2018-06-20T10:35:32.768Z,47.1
2018-06-20T10:36:34.265Z,46.3
2018-06-20T10:37:35.663Z,46.1
2018-06-20T10:38:37.059Z,45.9
2018-06-20T10:39:38.456Z,45.7
2018-06-20T10:40:39.863Z,45.4
2018-06-20T10:41:41.265Z,44.9
2018-06-20T10:42:42.653Z,45.1
2018-06-20T10:43:44.039Z,44.8
2018-06-20T10:44:45.446Z,45.0
2018-06-20T10:45:47.140Z,45.0
2018-06-20T10:46:48.491Z,45.1
2018-06-20T10:47:50.579Z,45.1
2018-06-20T10:48:51.983Z,44.8
2018-06-20T10:49:53.380Z,44.9
2018-06-20T10:50:54.784Z,45.2
2018-06-20T10:51:56.251Z,45.1
2018-06-20T10:52:57.629Z,45.3
2018-06-20T10:53:59.032Z,45.1
2018-06-20T10:55:00.419Z,45.1
2018-06-20T10:56:01.810Z,45.0
2018-06-20T10:57:03.223Z,44.8
2018-06-20T10:58:04.599Z,44.5
2018-06-20T10:59:06.004Z,44.4
2018-06-20T11:00:07.409Z,44.4
2018-06-20T11:01:08.816Z,44.6
2018-06-20T11:02:10.215Z,45.0
2018-06-20T11:03:11.614Z,44.7
2018-06-20T11:04:13.043Z,45.0
2018-06-20T11:05:14.436Z,44.9
2018-06-20T11:06:15.835Z,44.7
2018-06-20T11:07:17.229Z,44.5
2018-06-20T11:08:18.624Z,44.4
2018-06-20T11:09:20.057Z,44.6
2018-06-20T11:10:21.451Z,44.4
2018-06-20T11:11:22.841Z,43.9
2018-06-20T11:12:24.244Z,44.0
2018-06-20T11:13:25.634Z,43.8
2018-06-20T11:14:27.030Z,43.6
2018-06-20T11:15:28.506Z,43.4
2018-06-20T11:16:29.800Z,43.4
2018-06-20T11:17:31.321Z,42.9
2018-06-20T11:18:32.694Z,42.6
2018-06-20T11:19:34.091Z,43.4
2018-06-20T11:20:35.501Z,43.0
2018-06-20T11:21:36.894Z,42.7
2018-06-20T11:22:38.300Z,42.7
2018-06-20T11:23:39.700Z,42.6
2018-06-20T11:24:41.084Z,42.8
2018-06-20T11:25:42.488Z,42.8
2018-06-20T11:26:43.875Z,42.7
2018-06-20T11:27:45.275Z,42.8
2018-06-20T11:28:46.680Z,42.7
2018-06-20T11:29:48.196Z,42.5
2018-06-20T11:30:49.640Z,43.0
2018-06-20T11:31:51.032Z,43.2
2018-06-20T11:32:52.440Z,43.0
2018-06-20T11:33:53.827Z,41.8
2018-06-20T11:34:55.231Z,42.3
2018-06-20T11:35:56.643Z,42.2
2018-06-20T11:36:58.069Z,42.0
2018-06-20T11:37:59.456Z,41.3
2018-06-20T11:39:00.865Z,42.1
2018-06-20T11:40:02.266Z,41.9
2018-06-20T11:41:03.656Z,41.8
2018-06-20T11:42:05.068Z,41.8
2018-06-20T11:43:06.478Z,41.1
2018-06-20T11:44:07.862Z,41.6
2018-06-20T11:45:09.260Z,42.2
2018-06-20T11:46:10.664Z,41.7
2018-06-20T11:47:12.055Z,42.1
2018-06-20T11:48:13.441Z,42.4
2018-06-20T11:49:14.855Z,42.0
2018-06-20T11:50:16.254Z,42.3
2018-06-20T11:51:17.657Z,42.0
2018-06-20T11:52:19.060Z,42.1
2018-06-20T11:53:20.464Z,42.5
2018-06-20T11:54:21.855Z,41.8
2018-06-20T11:55:23.281Z,41.9
2018-06-20T11:56:24.668Z,42.0
2018-06-20T11:57:26.063Z,41.9
2018-06-20T11:58:27.535Z,42.0
2018-06-20T11:59:28.935Z,42.1
2018-06-20T12:00:30.336Z,41.6
2018-06-20T12:01:31.722Z,42.0
2018-06-20T12:02:33.121Z,41.3
2018-06-20T12:03:34.511Z,42.0
2018-06-20T12:04:35.915Z,42.0
2018-06-20T12:05:37.307Z,42.1
2018-06-20T12:06:38.720Z,41.9
2018-06-20T12:07:40.126Z,42.0
2018-06-20T12:08:41.522Z,41.7
2018-06-20T12:09:42.921Z,41.8
2018-06-20T12:10:44.326Z,42.1
2018-06-20T12:11:45.716Z,41.7
2018-06-20T12:12:47.199Z,41.8
2018-06-20T12:13:48.592Z,40.9
2018-06-20T12:14:50.021Z,41.0
2018-06-20T12:15:51.415Z,40.7
2018-06-20T12:16:52.805Z,41.0
2018-06-20T12:17:54.197Z,40.8
2018-06-20T12:18:55.599Z,40.8
2018-06-20T12:19:57.045Z,40.8
2018-06-20T12:20:58.510Z,40.8
2018-06-20T12:21:59.925Z,40.3
2018-06-20T12:23:01.269Z,40.3
2018-06-20T12:24:02.682Z,40.6
2018-06-20T12:25:04.077Z,40.1
2018-06-20T12:26:05.477Z,40.5
2018-06-20T12:27:06.862Z,41.1
2018-06-20T12:28:08.301Z,40.9
2018-06-20T12:29:09.696Z,40.9
2018-06-20T12:30:11.085Z,41.2
2018-06-20T12:31:12.487Z,40.8
2018-06-20T12:32:13.880Z,40.9
2018-06-20T12:33:15.271Z,41.2
2018-06-20T12:34:16.676Z,41.3
2018-06-20T12:35:18.077Z,41.1
2018-06-20T12:36:19.502Z,40.9
2018-06-20T12:37:20.900Z,40.8
2018-06-20T12:38:22.287Z,41.1
2018-06-20T12:39:23.685Z,41.4
2018-06-20T12:40:25.133Z,41.2
2018-06-20T12:41:26.504Z,40.8
2018-06-20T12:42:27.876Z,41.0
2018-06-20T12:43:29.280Z,40.7
2018-06-20T12:44:30.672Z,40.6
2018-06-20T12:45:32.075Z,41.1
2018-06-20T12:46:33.460Z,40.6
2018-06-20T12:47:34.867Z,40.5
2018-06-20T12:48:36.255Z,40.3
2018-06-20T12:49:37.686Z,40.3
2018-06-20T12:50:39.077Z,40.3
2018-06-20T12:51:40.482Z,40.1
2018-06-20T12:52:41.860Z,39.9
2018-06-20T12:53:43.262Z,39.9
2018-06-20T12:54:44.702Z,40.1
2018-06-20T12:55:46.090Z,39.7
2018-06-20T12:56:47.482Z,40.1
2018-06-20T12:57:48.877Z,39.9
2018-06-20T12:58:50.306Z,39.9
2018-06-20T12:59:51.708Z,40.0
2018-06-20T13:00:53.111Z,39.6
2018-06-20T13:01:54.505Z,40.2
2018-06-20T13:02:55.906Z,40.4
2018-06-20T13:03:57.304Z,40.0
2018-06-20T13:04:58.713Z,40.2
2018-06-20T13:06:00.103Z,39.9
2018-06-20T13:07:01.539Z,39.9
2018-06-20T13:08:02.900Z,39.8
2018-06-20T13:09:04.341Z,39.3
2018-06-20T13:10:05.733Z,39.7
2018-06-20T13:11:07.131Z,39.9
2018-06-20T13:12:08.686Z,39.3
2018-06-20T13:13:10.071Z,39.8
2018-06-20T13:14:11.521Z,39.8
2018-06-20T13:15:12.918Z,40.2
2018-06-20T13:16:14.299Z,40.3
2018-06-20T13:17:15.697Z,40.2
2018-06-20T13:18:17.093Z,39.9
2018-06-20T13:19:18.509Z,39.6
2018-06-20T13:20:20.793Z,40.0
2018-06-20T13:21:22.208Z,39.3
2018-06-20T13:22:23.601Z,38.9
2018-06-20T13:23:25.026Z,38.8
2018-06-20T13:24:26.405Z,39.1
2018-06-20T13:25:27.798Z,39.0
2018-06-20T13:26:29.182Z,38.8
2018-06-20T13:27:30.588Z,38.9
2018-06-20T13:28:31.967Z,38.9
2018-06-20T13:29:33.367Z,38.6
2018-06-20T13:30:34.760Z,38.8
2018-06-20T13:31:36.148Z,39.1
2018-06-20T13:32:37.542Z,39.6
2018-06-20T13:33:38.950Z,39.6
2018-06-20T13:34:40.338Z,39.6
2018-06-20T13:35:41.734Z,39.8
2018-06-20T13:36:43.173Z,39.7